createdAt,value
2023-05-10T00:00:30.259Z,9.78
2023-05-10T00:02:57.900Z,9.78
2023-05-10T00:05:25.768Z,9.68
2023-05-10T00:07:53.362Z,9.76
2023-05-10T00:10:20.965Z,9.69
2023-05-10T00:12:48.583Z,9.65
2023-05-10T00:15:16.331Z,9.70
2023-05-10T00:17:44.051Z,9.74
2023-05-10T00:20:12.184Z,9.69
2023-05-10T00:22:39.812Z,9.69
2023-05-10T00:25:08.290Z,9.73
2023-05-10T00:27:36.041Z,9.76
2023-05-10T00:30:03.845Z,9.82
2023-05-10T00:32:31.885Z,9.90
2023-05-10T00:34:59.649Z,10.01
2023-05-10T00:37:28.201Z,9.94
2023-05-10T00:39:56.503Z,9.95
2023-05-10T00:42:24.308Z,9.93
2023-05-10T00:44:54.211Z,9.88
2023-05-10T00:47:22.013Z,9.85
2023-05-10T00:49:49.710Z,9.85
2023-05-10T00:52:17.415Z,9.78
2023-05-10T00:54:45.142Z,9.79
2023-05-10T00:57:12.695Z,9.80
2023-05-10T00:59:40.900Z,9.77
2023-05-10T01:02:08.447Z,9.87
2023-05-10T01:04:36.553Z,9.93
2023-05-10T01:07:04.782Z,9.91
2023-05-10T01:09:33.909Z,10.00
2023-05-10T01:12:02.897Z,10.07
2023-05-10T01:14:31.838Z,10.04
2023-05-10T01:16:59.886Z,10.08
2023-05-10T01:19:30.705Z,10.05
2023-05-10T01:22:32.394Z,10.03
2023-05-10T01:24:59.887Z,10.05
2023-05-10T01:27:39.677Z,9.97
2023-05-10T01:30:24.985Z,9.91
2023-05-10T01:33:01.581Z,9.98
2023-05-10T01:35:35.815Z,10.08
2023-05-10T01:38:23.790Z,10.06
2023-05-10T01:41:02.082Z,10.03
2023-05-10T01:43:34.594Z,10.00
2023-05-10T01:46:11.582Z,9.98
2023-05-10T01:48:48.006Z,9.96
2023-05-10T01:51:21.550Z,9.93
2023-05-10T01:53:50.686Z,9.88
2023-05-10T01:56:25.213Z,9.85
2023-05-10T01:58:54.145Z,9.86
2023-05-10T02:01:23.348Z,9.78
2023-05-10T02:03:53.066Z,9.92
2023-05-10T02:06:23.393Z,9.84
2023-05-10T02:08:53.785Z,9.84
2023-05-10T02:11:23.563Z,9.93
2023-05-10T02:13:52.797Z,9.91
2023-05-10T02:16:26.374Z,9.94
2023-05-10T02:18:57.034Z,9.92
2023-05-10T02:21:26.101Z,9.93
2023-05-10T02:23:55.394Z,9.93
2023-05-10T02:26:26.314Z,9.92
2023-05-10T02:28:57.272Z,9.98
2023-05-10T02:31:26.170Z,9.90
2023-05-10T02:33:55.289Z,9.93
2023-05-10T02:36:26.513Z,9.87
2023-05-10T02:38:55.067Z,9.86
2023-05-10T02:41:27.377Z,9.90
2023-05-10T02:43:58.392Z,9.81
2023-05-10T02:46:26.638Z,9.78
2023-05-10T02:48:54.440Z,9.74
2023-05-10T02:51:27.465Z,9.71
2023-05-10T02:53:56.548Z,9.66
2023-05-10T02:56:32.914Z,9.66
2023-05-10T02:59:00.649Z,9.66
2023-05-10T03:01:28.607Z,9.66
2023-05-10T03:03:56.184Z,9.61
2023-05-10T03:06:23.989Z,9.60
2023-05-10T03:08:51.835Z,9.60
2023-05-10T03:11:31.659Z,9.63
2023-05-10T03:14:12.471Z,9.57
2023-05-10T03:17:08.340Z,9.56
2023-05-10T03:19:55.461Z,9.58
2023-05-10T03:22:37.525Z,9.65
2023-05-10T03:25:07.935Z,9.66
2023-05-10T03:27:40.292Z,9.64
2023-05-10T03:30:11.847Z,9.74
2023-05-10T03:32:39.928Z,9.75
2023-05-10T03:35:13.462Z,9.71
2023-05-10T03:37:41.231Z,9.72
2023-05-10T03:40:09.760Z,9.74
2023-05-10T03:42:39.322Z,9.71
2023-05-10T03:45:08.154Z,9.76
2023-05-10T03:47:36.279Z,9.78
2023-05-10T03:50:04.347Z,9.82
2023-05-10T03:52:32.997Z,9.87
2023-05-10T03:55:00.674Z,9.88
2023-05-10T03:57:28.338Z,9.89
2023-05-10T03:59:56.062Z,9.96
2023-05-10T04:02:25.546Z,10.04
2023-05-10T04:04:53.499Z,10.14
2023-05-10T04:07:21.372Z,10.09
2023-05-10T04:09:49.021Z,10.04
2023-05-10T04:12:17.119Z,10.07
2023-05-10T04:14:44.769Z,9.94
2023-05-10T04:17:12.428Z,9.93
2023-05-10T04:19:40.205Z,9.92
2023-05-10T04:22:07.810Z,9.99
2023-05-10T04:24:35.984Z,9.94
2023-05-10T04:27:03.666Z,10.01
2023-05-10T04:29:31.271Z,10.09
2023-05-10T04:31:58.854Z,9.99
2023-05-10T04:34:26.618Z,10.10
2023-05-10T04:36:54.241Z,10.15
2023-05-10T04:39:22.053Z,10.19
2023-05-10T04:41:49.630Z,10.28
2023-05-10T04:44:17.172Z,10.30
2023-05-10T04:46:44.901Z,10.38
2023-05-10T04:49:12.903Z,10.43
2023-05-10T04:51:40.645Z,10.52
2023-05-10T04:54:08.292Z,10.60
2023-05-10T04:56:35.897Z,10.70
2023-05-10T04:59:03.816Z,10.91
2023-05-10T05:01:31.524Z,11.09
2023-05-10T05:03:59.664Z,11.07
2023-05-10T05:06:28.406Z,10.96
2023-05-10T05:08:56.277Z,10.92
2023-05-10T05:11:24.032Z,11.03
2023-05-10T05:13:51.670Z,11.22
2023-05-10T05:16:19.266Z,11.17
2023-05-10T05:18:46.839Z,11.06
2023-05-10T05:21:18.565Z,10.89
2023-05-10T05:23:46.312Z,11.05
2023-05-10T05:26:13.858Z,11.27
2023-05-10T05:28:41.378Z,11.30
2023-05-10T05:31:09.404Z,11.12
2023-05-10T05:33:37.729Z,11.19
2023-05-10T05:36:06.663Z,11.26
2023-05-10T05:38:34.805Z,11.35
2023-05-10T05:41:02.471Z,11.45
2023-05-10T05:43:30.226Z,11.55
2023-05-10T05:45:59.153Z,11.46
2023-05-10T05:48:26.848Z,11.51
2023-05-10T05:50:58.657Z,11.64
2023-05-10T05:53:26.508Z,11.52
2023-05-10T05:55:59.303Z,11.56
2023-05-10T05:58:27.043Z,11.56
2023-05-10T06:00:54.660Z,11.58
2023-05-10T06:03:22.644Z,11.68
2023-05-10T06:05:50.409Z,11.72
2023-05-10T06:08:17.982Z,11.75
2023-05-10T06:10:46.393Z,11.85
2023-05-10T06:13:13.998Z,11.99
2023-05-10T06:15:41.768Z,12.05
2023-05-10T06:18:10.019Z,12.34
2023-05-10T06:20:37.890Z,12.54
2023-05-10T06:23:05.578Z,12.70
2023-05-10T06:25:33.193Z,12.36
2023-05-10T06:28:01.007Z,12.10
2023-05-10T06:30:30.347Z,12.02
2023-05-10T06:32:58.259Z,11.90
2023-05-10T06:35:26.068Z,11.90
2023-05-10T06:37:53.997Z,12.15
2023-05-10T06:40:21.849Z,12.49
2023-05-10T06:42:49.399Z,12.53
2023-05-10T06:45:17.637Z,12.29
2023-05-10T06:47:45.567Z,12.33
2023-05-10T06:50:13.171Z,12.50
2023-05-10T06:52:41.031Z,12.46
2023-05-10T06:55:09.873Z,12.42
2023-05-10T06:57:37.749Z,12.53
2023-05-10T07:00:06.110Z,12.56
2023-05-10T07:02:34.008Z,12.83
2023-05-10T07:05:03.144Z,13.10
2023-05-10T07:07:32.342Z,13.24
2023-05-10T07:10:00.290Z,13.08
2023-05-10T07:12:27.905Z,12.88
2023-05-10T07:14:55.431Z,12.64
2023-05-10T07:17:23.059Z,12.46
2023-05-10T07:19:50.899Z,12.75
2023-05-10T07:22:18.520Z,13.10
2023-05-10T07:24:46.562Z,13.33
2023-05-10T07:27:14.207Z,13.06
2023-05-10T07:29:41.760Z,12.65
2023-05-10T07:32:09.422Z,12.52
2023-05-10T07:34:37.181Z,12.48
2023-05-10T07:37:04.704Z,12.23
2023-05-10T07:39:32.225Z,12.12
2023-05-10T07:41:59.796Z,11.85
2023-05-10T07:44:27.428Z,11.99
2023-05-10T07:46:54.919Z,12.02
2023-05-10T07:49:22.449Z,12.22
2023-05-10T07:51:50.336Z,12.48
2023-05-10T07:54:18.321Z,12.96
2023-05-10T07:56:48.105Z,13.22
2023-05-10T07:59:17.559Z,13.32
2023-05-10T08:01:45.722Z,13.39
2023-05-10T08:04:14.008Z,13.13
2023-05-10T08:06:41.861Z,12.81
2023-05-10T08:09:10.517Z,12.75
2023-05-10T08:11:38.338Z,12.62
2023-05-10T08:14:06.229Z,12.59
2023-05-10T08:16:33.881Z,12.48
2023-05-10T08:19:01.513Z,12.47
2023-05-10T08:21:29.378Z,12.37
2023-05-10T08:23:56.921Z,12.48
2023-05-10T08:26:24.455Z,12.41
2023-05-10T08:28:52.112Z,12.69
2023-05-10T08:31:19.834Z,12.95
2023-05-10T08:33:47.431Z,13.00
2023-05-10T08:36:20.695Z,13.21
2023-05-10T08:38:52.123Z,13.49
2023-05-10T08:41:24.944Z,13.68
2023-05-10T08:43:56.014Z,13.77
2023-05-10T08:46:24.635Z,13.94
2023-05-10T08:48:53.267Z,13.87
2023-05-10T08:51:26.373Z,13.77
2023-05-10T08:53:54.079Z,13.49
2023-05-10T08:56:21.972Z,13.37
2023-05-10T08:58:50.811Z,13.39
2023-05-10T09:01:20.541Z,13.36
2023-05-10T09:03:49.342Z,13.33
2023-05-10T09:06:17.196Z,13.22
2023-05-10T09:08:45.897Z,13.27
2023-05-10T09:11:13.895Z,13.11
2023-05-10T09:13:42.592Z,13.22
2023-05-10T09:16:21.331Z,13.29
2023-05-10T09:18:50.698Z,13.41
2023-05-10T09:21:18.482Z,13.57
2023-05-10T09:23:48.688Z,13.71
2023-05-10T09:26:17.279Z,13.85
2023-05-10T09:28:58.506Z,13.82
2023-05-10T09:31:45.952Z,13.77
2023-05-10T09:34:18.281Z,13.92
2023-05-10T09:37:03.673Z,14.17
2023-05-10T09:39:35.335Z,14.36
2023-05-10T09:42:05.879Z,14.62
2023-05-10T09:44:34.964Z,14.81
2023-05-10T09:47:03.676Z,14.60
2023-05-10T09:49:31.827Z,14.42
2023-05-10T09:52:09.126Z,14.21
2023-05-10T09:54:37.405Z,14.02
2023-05-10T09:57:04.990Z,14.02
2023-05-10T09:59:35.934Z,14.09
2023-05-10T10:02:03.948Z,14.17
2023-05-10T10:04:31.778Z,14.01
2023-05-10T10:07:05.963Z,13.87
2023-05-10T10:09:35.421Z,14.00
2023-05-10T10:12:04.846Z,13.97
2023-05-10T10:14:32.875Z,13.95
2023-05-10T10:19:35.378Z,13.60
2023-05-10T10:22:03.252Z,13.48
2023-05-10T10:24:31.265Z,13.32
2023-05-10T10:27:08.896Z,13.23
2023-05-10T10:29:53.616Z,13.28
2023-05-10T10:32:49.516Z,13.58
2023-05-10T10:35:17.545Z,13.81
2023-05-10T10:37:47.327Z,14.00
2023-05-10T10:40:41.341Z,14.29
2023-05-10T10:43:27.810Z,14.43
2023-05-10T10:46:16.414Z,14.11
2023-05-10T10:49:09.019Z,14.14
2023-05-10T10:51:40.658Z,14.48
2023-05-10T10:54:11.687Z,14.34
2023-05-10T10:56:39.433Z,14.26
2023-05-10T10:59:07.037Z,14.13
2023-05-10T11:01:36.513Z,14.05
2023-05-10T11:04:04.281Z,14.12
2023-05-10T11:06:33.590Z,14.22
2023-05-10T11:09:08.305Z,14.50
2023-05-10T11:11:37.470Z,14.53
2023-05-10T11:14:07.282Z,14.71
2023-05-10T11:16:45.638Z,14.82
2023-05-10T11:19:17.716Z,15.12
2023-05-10T11:22:06.479Z,14.92
2023-05-10T11:24:36.901Z,15.03
2023-05-10T11:27:04.688Z,14.59
2023-05-10T11:29:32.817Z,14.30
2023-05-10T11:32:01.129Z,13.82
2023-05-10T11:34:31.475Z,13.67
2023-05-10T11:36:59.497Z,13.37
2023-05-10T11:39:31.286Z,13.27
2023-05-10T11:41:59.413Z,13.25
2023-05-10T11:44:33.692Z,13.37
2023-05-10T11:47:04.441Z,13.39
2023-05-10T11:49:32.284Z,13.44
2023-05-10T11:52:09.686Z,13.36
2023-05-10T11:54:37.517Z,13.46
2023-05-10T11:57:05.345Z,13.55
2023-05-10T11:59:32.933Z,13.59
2023-05-10T12:02:00.981Z,13.84
2023-05-10T12:04:30.870Z,14.16
2023-05-10T12:06:58.759Z,14.42
2023-05-10T12:09:39.748Z,14.43
2023-05-10T12:12:11.898Z,14.78
2023-05-10T12:14:39.634Z,14.99
2023-05-10T12:17:07.137Z,14.84
2023-05-10T12:19:40.750Z,14.86
2023-05-10T12:22:08.395Z,14.96
2023-05-10T12:24:39.076Z,14.98
2023-05-10T12:27:09.254Z,14.92
2023-05-10T12:29:37.250Z,14.91
2023-05-10T12:32:05.022Z,14.82
2023-05-10T12:34:34.268Z,14.63
2023-05-10T12:37:02.780Z,14.68
2023-05-10T12:39:44.000Z,14.30
2023-05-10T12:42:12.029Z,14.28
2023-05-10T12:44:40.265Z,13.79
2023-05-10T12:47:07.928Z,13.77
2023-05-10T12:49:35.516Z,13.66
2023-05-10T12:52:03.144Z,13.43
2023-05-10T12:54:30.953Z,13.41
2023-05-10T12:56:58.673Z,13.41
2023-05-10T12:59:26.183Z,13.38
2023-05-10T13:01:53.769Z,13.14
2023-05-10T13:04:21.331Z,13.04
2023-05-10T13:06:48.849Z,12.95
2023-05-10T13:09:16.466Z,12.97
2023-05-10T13:11:44.209Z,12.85
2023-05-10T13:14:11.894Z,12.95
2023-05-10T13:16:39.541Z,12.88
2023-05-10T13:19:07.229Z,13.01
2023-05-10T13:21:34.723Z,13.09
2023-05-10T13:24:02.575Z,13.22
2023-05-10T13:26:30.982Z,13.30
2023-05-10T13:28:58.550Z,13.24
2023-05-10T13:31:26.300Z,13.41
2023-05-10T13:33:54.071Z,13.62
2023-05-10T13:36:21.874Z,13.88
2023-05-10T13:38:49.470Z,13.76
2023-05-10T13:41:17.107Z,13.90
2023-05-10T13:43:44.838Z,14.14
2023-05-10T13:46:12.632Z,14.18
2023-05-10T13:48:40.298Z,14.47
2023-05-10T13:51:08.007Z,14.48
2023-05-10T13:53:35.957Z,14.32
2023-05-10T13:56:04.045Z,14.50
2023-05-10T13:58:31.710Z,14.76
2023-05-10T14:00:59.444Z,14.87
2023-05-10T14:03:27.192Z,15.03
2023-05-10T14:05:55.057Z,14.85
2023-05-10T14:08:22.790Z,14.43
2023-05-10T14:10:51.814Z,14.08
2023-05-10T14:13:19.599Z,13.87
2023-05-10T14:15:47.238Z,13.84
2023-05-10T14:18:15.412Z,13.96
2023-05-10T14:20:43.010Z,14.08
2023-05-10T14:23:11.952Z,14.39
2023-05-10T14:25:41.851Z,14.59
2023-05-10T14:28:09.518Z,14.49
2023-05-10T14:30:37.574Z,14.44
2023-05-10T14:33:05.273Z,14.47
2023-05-10T14:35:33.021Z,14.40
2023-05-10T14:38:00.551Z,14.44
2023-05-10T14:40:28.114Z,14.52
2023-05-10T14:42:55.731Z,14.60
2023-05-10T14:45:24.056Z,14.54
2023-05-10T14:47:51.822Z,14.41
2023-05-10T14:50:35.099Z,14.42
2023-05-10T14:53:05.175Z,14.34
2023-05-10T14:55:33.843Z,14.31
2023-05-10T14:58:01.449Z,14.33
2023-05-10T15:00:30.680Z,14.57
2023-05-10T15:02:58.873Z,14.64
2023-05-10T15:05:27.243Z,14.62
2023-05-10T15:07:55.612Z,14.68
2023-05-10T15:10:23.628Z,15.10
2023-05-10T15:12:51.562Z,15.15
2023-05-10T15:15:19.407Z,14.99
2023-05-10T15:17:48.834Z,14.89
2023-05-10T15:20:16.742Z,14.73
2023-05-10T15:22:44.442Z,14.60
2023-05-10T15:25:11.987Z,14.46
2023-05-10T15:27:39.663Z,14.43
2023-05-10T15:30:08.380Z,14.41
2023-05-10T15:32:36.294Z,14.37
2023-05-10T15:35:04.623Z,14.11
2023-05-10T15:37:32.385Z,13.73
2023-05-10T15:40:04.775Z,13.50
2023-05-10T15:42:33.570Z,13.50
2023-05-10T15:45:01.216Z,13.47
2023-05-10T15:47:31.229Z,13.47
2023-05-10T15:49:58.728Z,13.41
2023-05-10T15:52:26.250Z,13.30
2023-05-10T15:54:54.023Z,13.29
2023-05-10T15:57:21.591Z,13.29
2023-05-10T15:59:49.452Z,13.34
2023-05-10T16:02:19.396Z,13.18
2023-05-10T16:04:47.196Z,12.97
2023-05-10T16:07:14.763Z,12.99
2023-05-10T16:09:42.247Z,13.09
2023-05-10T16:12:09.751Z,13.15
2023-05-10T16:14:37.471Z,13.19
2023-05-10T16:17:05.123Z,13.22
2023-05-10T16:19:32.918Z,13.29
2023-05-10T16:22:00.648Z,13.34
2023-05-10T16:24:28.187Z,13.45
2023-05-10T16:26:55.697Z,13.42
2023-05-10T16:29:23.225Z,13.44
2023-05-10T16:31:50.733Z,13.32
2023-05-10T16:34:18.177Z,13.27
2023-05-10T16:36:45.734Z,13.26
2023-05-10T16:39:13.201Z,13.32
2023-05-10T16:41:40.772Z,13.30
2023-05-10T16:44:08.329Z,13.21
2023-05-10T16:46:36.654Z,13.12
2023-05-10T16:49:04.236Z,13.08
2023-05-10T16:51:31.809Z,13.00
2023-05-10T16:53:59.321Z,13.03
2023-05-10T16:56:26.831Z,13.05
2023-05-10T16:58:54.466Z,13.09
2023-05-10T17:01:23.254Z,13.10
2023-05-10T17:03:52.810Z,13.17
2023-05-10T17:06:20.474Z,13.16
2023-05-10T17:08:48.020Z,13.15
2023-05-10T17:11:15.594Z,13.13
2023-05-10T17:13:43.132Z,13.08
2023-05-10T17:16:11.073Z,13.05
2023-05-10T17:18:38.950Z,13.01
2023-05-10T17:21:06.570Z,12.98
2023-05-10T17:23:34.565Z,12.93
2023-05-10T17:26:04.657Z,12.85
2023-05-10T17:28:32.666Z,12.84
2023-05-10T17:31:00.547Z,12.83
2023-05-10T17:33:28.034Z,12.81
2023-05-10T17:35:56.396Z,12.79
2023-05-10T17:38:23.935Z,12.75
2023-05-10T17:40:51.586Z,12.71
2023-05-10T17:43:20.653Z,12.68
2023-05-10T17:45:49.771Z,12.65
2023-05-10T17:48:17.466Z,12.69
2023-05-10T17:50:45.106Z,12.66
2023-05-10T17:53:12.664Z,12.63
2023-05-10T17:55:41.659Z,12.58
2023-05-10T17:58:11.476Z,12.56
2023-05-10T18:00:39.572Z,12.57
2023-05-10T18:03:07.147Z,12.60
2023-05-10T18:05:37.333Z,12.66
2023-05-10T18:08:06.098Z,12.65
2023-05-10T18:10:33.947Z,12.60
2023-05-10T18:13:05.023Z,12.55
2023-05-10T18:15:34.625Z,12.58
2023-05-10T18:18:04.301Z,12.53
2023-05-10T18:20:32.190Z,12.57
2023-05-10T18:22:59.691Z,12.61
2023-05-10T18:25:27.430Z,12.57
2023-05-10T18:27:54.998Z,12.53
2023-05-10T18:30:22.756Z,12.54
2023-05-10T18:32:50.355Z,12.51
2023-05-10T18:35:18.027Z,12.47
2023-05-10T18:37:45.727Z,12.40
2023-05-10T18:40:14.733Z,12.25
2023-05-10T18:42:42.455Z,12.13
2023-05-10T18:45:10.181Z,12.07
2023-05-10T18:47:37.898Z,12.04
2023-05-10T18:50:06.516Z,11.95
2023-05-10T18:52:36.857Z,11.87
2023-05-10T18:55:04.783Z,11.73
2023-05-10T18:57:32.605Z,11.71
2023-05-10T19:00:00.223Z,11.79
2023-05-10T19:02:27.988Z,11.92
2023-05-10T19:04:58.866Z,11.88
2023-05-10T19:07:26.526Z,11.88
2023-05-10T19:09:54.085Z,11.92
2023-05-10T19:12:21.528Z,11.93
2023-05-10T19:14:50.489Z,11.82
2023-05-10T19:17:17.992Z,11.73
2023-05-10T19:19:45.717Z,11.62
2023-05-10T19:22:13.498Z,11.68
2023-05-10T19:24:41.076Z,11.64
2023-05-10T19:27:08.881Z,11.50
2023-05-10T19:29:36.765Z,11.51
2023-05-10T19:32:05.202Z,11.56
2023-05-10T19:34:32.917Z,11.44
2023-05-10T19:37:00.446Z,11.35
2023-05-10T19:39:28.118Z,11.42
2023-05-10T19:41:55.666Z,11.43
2023-05-10T19:44:23.943Z,11.42
2023-05-10T19:46:51.581Z,11.22
2023-05-10T19:49:20.272Z,11.23
2023-05-10T19:51:47.837Z,11.19
2023-05-10T19:54:15.312Z,11.08
2023-05-10T19:56:42.874Z,11.10
2023-05-10T19:59:10.356Z,11.15
2023-05-10T20:01:38.228Z,11.02
2023-05-10T20:04:06.097Z,10.92
2023-05-10T20:06:33.924Z,11.01
2023-05-10T20:09:01.449Z,11.02
2023-05-10T20:11:29.154Z,11.00
2023-05-10T20:13:57.074Z,10.97
2023-05-10T20:16:26.617Z,10.94
2023-05-10T20:18:54.768Z,10.86
2023-05-10T20:21:23.936Z,10.75
2023-05-10T20:23:51.458Z,10.71
2023-05-10T20:26:19.049Z,10.66
2023-05-10T20:28:46.508Z,10.60
2023-05-10T20:31:14.064Z,10.65
2023-05-10T20:33:41.751Z,10.71
2023-05-10T20:36:09.737Z,10.78
2023-05-10T20:38:37.325Z,10.73
2023-05-10T20:41:04.840Z,10.65
2023-05-10T20:43:32.649Z,10.61
2023-05-10T20:46:05.442Z,10.43
2023-05-10T20:48:33.322Z,10.33
2023-05-10T20:51:02.276Z,10.35
2023-05-10T20:53:30.082Z,10.37
2023-05-10T20:55:57.599Z,10.22
2023-05-10T20:58:25.127Z,10.20
2023-05-10T21:00:52.584Z,10.24
2023-05-10T21:07:57.026Z,9.92
2023-05-10T21:10:28.297Z,10.04
2023-05-10T21:12:56.208Z,9.97
2023-05-10T21:15:24.565Z,9.95
2023-05-10T21:17:54.072Z,9.97
2023-05-10T21:20:21.772Z,9.98
2023-05-10T21:22:49.344Z,9.94
2023-05-10T21:25:17.998Z,9.87
2023-05-10T21:27:46.080Z,9.93
2023-05-10T21:30:13.952Z,9.93
2023-05-10T21:34:18.074Z,9.83
2023-05-10T21:36:45.663Z,9.86
2023-05-10T21:39:13.436Z,9.86
2023-05-10T21:41:41.216Z,9.85
2023-05-10T21:44:08.804Z,9.78
2023-05-10T21:46:36.440Z,9.76
2023-05-10T21:49:03.975Z,9.83
2023-05-10T21:51:32.585Z,9.72
2023-05-10T21:54:00.126Z,9.66
2023-05-10T21:56:27.615Z,9.76
2023-05-10T21:58:55.140Z,9.78
2023-05-10T22:01:22.832Z,9.75
2023-05-10T22:03:50.652Z,9.78
2023-05-10T22:06:19.563Z,9.72
2023-05-10T22:08:47.651Z,9.61
2023-05-10T22:11:15.467Z,9.65
2023-05-10T22:13:43.037Z,9.63
2023-05-10T22:16:10.713Z,9.61
2023-05-10T22:18:38.652Z,9.62
2023-05-10T22:21:06.542Z,9.63
2023-05-10T22:23:34.078Z,9.69
2023-05-10T22:26:02.714Z,9.64
2023-05-10T22:28:30.601Z,9.59
2023-05-10T22:30:58.193Z,9.70
2023-05-10T22:33:25.834Z,9.74
2023-05-10T22:35:53.593Z,9.66
2023-05-10T22:38:21.550Z,9.69
2023-05-10T22:40:49.313Z,9.77
2023-05-10T22:43:17.638Z,9.66
2023-05-10T22:45:45.388Z,9.56
2023-05-10T22:48:14.737Z,9.56
2023-05-10T22:50:42.482Z,9.60
2023-05-10T22:53:10.854Z,9.52
2023-05-10T22:55:38.500Z,9.49
2023-05-10T22:58:06.870Z,9.62
2023-05-10T23:00:34.828Z,9.61
2023-05-10T23:03:02.495Z,9.58
2023-05-10T23:05:30.728Z,9.57
2023-05-10T23:07:58.662Z,9.66
2023-05-10T23:10:27.675Z,9.72
2023-05-10T23:12:56.246Z,9.65
2023-05-10T23:15:24.029Z,9.60
2023-05-10T23:17:51.618Z,9.53
2023-05-10T23:20:19.290Z,9.47
2023-05-10T23:22:47.338Z,9.43
2023-05-10T23:25:14.830Z,9.46
2023-05-10T23:27:42.778Z,9.41
2023-05-10T23:30:10.957Z,9.23
2023-05-10T23:32:39.191Z,9.27
2023-05-10T23:35:07.527Z,9.27
2023-05-10T23:37:36.210Z,9.22
2023-05-10T23:40:04.490Z,9.18
2023-05-10T23:42:32.937Z,9.25
2023-05-10T23:45:00.756Z,9.30
2023-05-10T23:47:28.394Z,9.19
2023-05-10T23:49:56.023Z,9.17
2023-05-10T23:52:25.139Z,9.16
2023-05-10T23:54:53.744Z,9.10
2023-05-10T23:57:21.562Z,8.99
2023-05-10T23:59:49.172Z,9.01
